Terminal Aerodrome Forecast
Issued by NWS

Home | Current Version | Previous Version | Text Only | Print | Product List | Glossary On
Versions: 1 2 3 4 5 6 7 8 9 10 11 12 13 14 15 16 17 18 19 20 21 22 23 24 25 26 27 28 29 30 31 32 33 34 35 36 37 38
000
FTAK31 PAFA 262353
TAFATA
TAF
PATA 262353Z 2700/2724 12009KT P6SM VCSH SCT025 BKN040
      TEMPO 2700/2703 2SM -SN BKN025
     FM270400 27010KT P6SM VCSH SCT020 BKN040
     FM271000 VRB03KT P6SM SCT080=

USA.gov is the U.S. government's official web portal to all federal, state and local government web resources and services.